Terminal Aerodrome Forecast
Issued by NWS Shreveport, LA

Home | Current Version | Previous Version | Text Only | Print | Product List | Glossary On
Versions: 1 2 3 4 5 6 7 8 9 10 11 12 13 14 15 16 17 18 19 20 21
174
FTUS44 KSHV 251140
TAFGGG
TAF
KGGG 251140Z 2512/2612 VRB03KT P6SM BKN110
     FM251500 VRB04KT P6SM SCT020 BKN120
     FM251700 07006KT P6SM VCSH BKN035
     FM252000 06006KT P6SM VCTS BKN045CB
     FM260000 08003KT P6SM FEW060 BKN150 BKN250
     FM260600 VRB03KT P6SM SCT150 BKN250=

USA.gov is the U.S. government's official web portal to all federal, state and local government web resources and services.